sensor_id;sensor_type;location;lat;lon;timestamp;pressure;altitude;pressure_sealevel;temperature;humidity
16194;BME280;8204;53.582;10.080;2023-04-20T00:00:06;102074.03;;;11.68;82.06
16194;BME280;8204;53.582;10.080;2023-04-20T00:02:36;102083.56;;;11.69;82.07
16194;BME280;8204;53.582;10.080;2023-04-20T00:05:09;102079.38;;;11.57;82.94
16194;BME280;8204;53.582;10.080;2023-04-20T00:07:39;102071.38;;;11.59;82.58
16194;BME280;8204;53.582;10.080;2023-04-20T00:10:09;102076.38;;;11.62;82.59
16194;BME280;8204;53.582;10.080;2023-04-20T00:12:40;102066.69;;;11.62;83.81
16194;BME280;8204;53.582;10.080;2023-04-20T00:15:09;102069.13;;;11.54;84.23
16194;BME280;8204;53.582;10.080;2023-04-20T00:17:38;102068.88;;;11.57;84.67
16194;BME280;8204;53.582;10.080;2023-04-20T00:20:12;102073.56;;;11.54;85.48
16194;BME280;8204;53.582;10.080;2023-04-20T00:22:41;102080.47;;;11.55;87.99
16194;BME280;8204;53.582;10.080;2023-04-20T00:25:10;102090.13;;;11.54;93.83
16194;BME280;8204;53.582;10.080;2023-04-20T00:27:40;102080.97;;;11.49;100.00
16194;BME280;8204;53.582;10.080;2023-04-20T00:30:12;102087.56;;;11.43;100.00
16194;BME280;8204;53.582;10.080;2023-04-20T00:32:41;102084.53;;;11.38;100.00
16194;BME280;8204;53.582;10.080;2023-04-20T00:35:12;102086.19;;;11.39;100.00
16194;BME280;8204;53.582;10.080;2023-04-20T00:37:44;102084.09;;;11.33;100.00
16194;BME280;8204;53.582;10.080;2023-04-20T00:40:15;102085.19;;;11.31;100.00
16194;BME280;8204;53.582;10.080;2023-04-20T00:42:48;102078.28;;;11.30;100.00
16194;BME280;8204;53.582;10.080;2023-04-20T00:45:20;102057.91;;;11.22;100.00
16194;BME280;8204;53.582;10.080;2023-04-20T00:47:54;102064.59;;;11.26;100.00
16194;BME280;8204;53.582;10.080;2023-04-20T00:50:26;102055.81;;;11.16;100.00
16194;BME280;8204;53.582;10.080;2023-04-20T00:52:55;102027.81;;;11.17;100.00
16194;BME280;8204;53.582;10.080;2023-04-20T00:55:25;102037.22;;;11.19;100.00
16194;BME280;8204;53.582;10.080;2023-04-20T00:57:54;102055.72;;;11.18;100.00
16194;BME280;8204;53.582;10.080;2023-04-20T01:00:23;102057.28;;;11.09;100.00
16194;BME280;8204;53.582;10.080;2023-04-20T01:02:52;102038.25;;;11.07;100.00
16194;BME280;8204;53.582;10.080;2023-04-20T01:05:21;102026.25;;;11.05;100.00
16194;BME280;8204;53.582;10.080;2023-04-20T01:07:52;102019.03;;;11.07;100.00
16194;BME280;8204;53.582;10.080;2023-04-20T01:10:21;102022.75;;;11.04;100.00
16194;BME280;8204;53.582;10.080;2023-04-20T01:12:50;102028.88;;;11.05;100.00
16194;BME280;8204;53.582;10.080;2023-04-20T01:15:19;102021.94;;;11.04;100.00
16194;BME280;8204;53.582;10.080;2023-04-20T01:17:47;102023.84;;;11.02;100.00
16194;BME280;8204;53.582;10.080;2023-04-20T01:20:17;102020.66;;;10.98;100.00
16194;BME280;8204;53.582;10.080;2023-04-20T01:22:51;102009.78;;;11.03;100.00
16194;BME280;8204;53.582;10.080;2023-04-20T01:25:21;102016.69;;;11.04;100.00
16194;BME280;8204;53.582;10.080;2023-04-20T01:27:50;102026.63;;;11.00;100.00
16194;BME280;8204;53.582;10.080;2023-04-20T01:30:19;102031.16;;;10.98;100.00
16194;BME280;8204;53.582;10.080;2023-04-20T01:32:48;102025.47;;;10.93;100.00
16194;BME280;8204;53.582;10.080;2023-04-20T01:35:16;102010.84;;;10.91;100.00
16194;BME280;8204;53.582;10.080;2023-04-20T01:37:46;102016.31;;;10.88;100.00
16194;BME280;8204;53.582;10.080;2023-04-20T01:40:19;102024.34;;;10.87;100.00
16194;BME280;8204;53.582;10.080;2023-04-20T01:42:48;102019.34;;;10.84;100.00
16194;BME280;8204;53.582;10.080;2023-04-20T01:45:17;102017.94;;;10.80;100.00
16194;BME280;8204;53.582;10.080;2023-04-20T01:47:45;102005.78;;;10.79;100.00
16194;BME280;8204;53.582;10.080;2023-04-20T01:50:14;102008.69;;;10.76;100.00
16194;BME280;8204;53.582;10.080;2023-04-20T01:52:43;102000.09;;;10.74;100.00
16194;BME280;8204;53.582;10.080;2023-04-20T01:55:11;101999.25;;;10.73;100.00
16194;BME280;8204;53.582;10.080;2023-04-20T01:57:43;101992.75;;;10.68;100.00
16194;BME280;8204;53.582;10.080;2023-04-20T02:00:12;102001.00;;;10.63;100.00
16194;BME280;8204;53.582;10.080;2023-04-20T02:02:42;101986.81;;;10.66;100.00
16194;BME280;8204;53.582;10.080;2023-04-20T02:05:11;102001.97;;;10.62;100.00
16194;BME280;8204;53.582;10.080;2023-04-20T02:07:41;102001.13;;;10.62;100.00
16194;BME280;8204;53.582;10.080;2023-04-20T02:10:11;102004.59;;;10.62;100.00
16194;BME280;8204;53.582;10.080;2023-04-20T02:12:43;101985.28;;;10.63;100.00
16194;BME280;8204;53.582;10.080;2023-04-20T02:15:12;101975.75;;;10.62;100.00
16194;BME280;8204;53.582;10.080;2023-04-20T02:17:41;101975.75;;;10.62;100.00
16194;BME280;8204;53.582;10.080;2023-04-20T02:20:10;101971.84;;;10.57;100.00
16194;BME280;8204;53.582;10.080;2023-04-20T02:22:39;101972.56;;;10.59;100.00
16194;BME280;8204;53.582;10.080;2023-04-20T02:25:09;101966.34;;;10.60;100.00
16194;BME280;8204;53.582;10.080;2023-04-20T02:27:37;101966.75;;;10.55;100.00
16194;BME280;8204;53.582;10.080;2023-04-20T02:30:10;101970.66;;;10.61;100.00
16194;BME280;8204;53.582;10.080;2023-04-20T02:32:39;101962.78;;;10.61;100.00
16194;BME280;8204;53.582;10.080;2023-04-20T02:35:08;101966.06;;;10.63;100.00
16194;BME280;8204;53.582;10.080;2023-04-20T02:37:39;101955.44;;;10.55;100.00
16194;BME280;8204;53.582;10.080;2023-04-20T02:40:08;101953.78;;;10.54;100.00
16194;BME280;8204;53.582;10.080;2023-04-20T02:42:37;101958.06;;;10.55;100.00
16194;BME280;8204;53.582;10.080;2023-04-20T02:45:10;101952.25;;;10.51;100.00
16194;BME280;8204;53.582;10.080;2023-04-20T02:47:39;101955.09;;;10.48;100.00
16194;BME280;8204;53.582;10.080;2023-04-20T02:50:09;101948.91;;;10.49;100.00
16194;BME280;8204;53.582;10.080;2023-04-20T02:52:38;101955.09;;;10.48;100.00
16194;BME280;8204;53.582;10.080;2023-04-20T02:55:07;101949.03;;;10.48;100.00
16194;BME280;8204;53.582;10.080;2023-04-20T02:57:36;101949.03;;;10.48;100.00
16194;BME280;8204;53.582;10.080;2023-04-20T03:00:06;101957.59;;;10.50;100.00
16194;BME280;8204;53.582;10.080;2023-04-20T03:02:40;101957.59;;;10.50;100.00
16194;BME280;8204;53.582;10.080;2023-04-20T03:05:09;101957.59;;;10.50;100.00
16194;BME280;8204;53.582;10.080;2023-04-20T03:07:38;101958.44;;;10.50;100.00
16194;BME280;8204;53.582;10.080;2023-04-20T03:10:08;101954.72;;;10.53;100.00
16194;BME280;8204;53.582;10.080;2023-04-20T03:12:37;101955.94;;;10.49;100.00
16194;BME280;8204;53.582;10.080;2023-04-20T03:15:07;101949.03;;;10.48;100.00
16194;BME280;8204;53.582;10.080;2023-04-20T03:17:39;101947.09;;;10.50;100.00
16194;BME280;8204;53.582;10.080;2023-04-20T03:20:08;101955.25;;;10.47;100.00
16194;BME280;8204;53.582;10.080;2023-04-20T03:22:38;101953.44;;;10.47;100.00
16194;BME280;8204;53.582;10.080;2023-04-20T03:25:07;101944.63;;;10.48;100.00
16194;BME280;8204;53.582;10.080;2023-04-20T03:27:36;101949.88;;;10.48;100.00
16194;BME280;8204;53.582;10.080;2023-04-20T03:30:07;101957.03;;;10.46;100.00
16194;BME280;8204;53.582;10.080;2023-04-20T03:32:36;101953.00;;;10.42;100.00
16194;BME280;8204;53.582;10.080;2023-04-20T03:35:08;101953.38;;;10.38;100.00
16194;BME280;8204;53.582;10.080;2023-04-20T03:37:37;101950.06;;;10.36;100.00
16194;BME280;8204;53.582;10.080;2023-04-20T03:40:07;101942.72;;;10.30;100.00
16194;BME280;8204;53.582;10.080;2023-04-20T03:42:36;101944.88;;;10.25;100.00
16194;BME280;8204;53.582;10.080;2023-04-20T03:45:06;101932.28;;;10.19;100.00
16194;BME280;8204;53.582;10.080;2023-04-20T03:47:35;101920.28;;;10.17;100.00
16194;BME280;8204;53.582;10.080;2023-04-20T03:50:13;101891.63;;;10.15;100.00
16194;BME280;8204;53.582;10.080;2023-04-20T03:52:42;101881.38;;;10.12;100.00
16194;BME280;8204;53.582;10.080;2023-04-20T03:55:11;101877.38;;;10.08;100.00
16194;BME280;8204;53.582;10.080;2023-04-20T03:57:40;101874.31;;;10.03;100.00
16194;BME280;8204;53.582;10.080;2023-04-20T04:00:10;101869.31;;;10.00;100.00
16194;BME280;8204;53.582;10.080;2023-04-20T04:02:39;101849.81;;;9.93;100.00
16194;BME280;8204;53.582;10.080;2023-04-20T04:05:08;101849.09;;;9.91;100.00
16194;BME280;8204;53.582;10.080;2023-04-20T04:07:40;101849.94;;;9.92;100.00
16194;BME280;8204;53.582;10.080;2023-04-20T04:10:09;101851.84;;;9.90;100.00
16194;BME280;8204;53.582;10.080;2023-04-20T04:12:38;101854.00;;;9.85;100.00
16194;BME280;8204;53.582;10.080;2023-04-20T04:15:09;101833.06;;;9.85;100.00
16194;BME280;8204;53.582;10.080;2023-04-20T04:17:38;101832.81;;;9.88;100.00
16194;BME280;8204;53.582;10.080;2023-04-20T04:20:08;101813.66;;;9.87;100.00
16194;BME280;8204;53.582;10.080;2023-04-20T04:22:41;101834.47;;;9.89;100.00
16194;BME280;8204;53.582;10.080;2023-04-20T04:25:10;101826.75;;;9.87;100.00
16194;BME280;8204;53.582;10.080;2023-04-20T04:27:39;101834.75;;;9.86;100.00
16194;BME280;8204;53.582;10.080;2023-04-20T04:30:10;101837.22;;;9.87;100.00
16194;BME280;8204;53.582;10.080;2023-04-20T04:32:39;101828.66;;;9.85;100.00
16194;BME280;8204;53.582;10.080;2023-04-20T04:35:09;101831.41;;;9.84;100.00
16194;BME280;8204;53.582;10.080;2023-04-20T04:37:40;101818.59;;;9.81;100.00
16194;BME280;8204;53.582;10.080;2023-04-20T04:40:10;101824.88;;;9.78;100.00
16194;BME280;8204;53.582;10.080;2023-04-20T04:42:38;101827.50;;;9.78;100.00
16194;BME280;8204;53.582;10.080;2023-04-20T04:45:09;101812.06;;;9.75;100.00
16194;BME280;8204;53.582;10.080;2023-04-20T04:47:39;101800.66;;;9.76;100.00
16194;BME280;8204;53.582;10.080;2023-04-20T04:50:09;101803.50;;;9.73;100.00
16194;BME280;8204;53.582;10.080;2023-04-20T04:52:41;101800.31;;;9.70;100.00
16194;BME280;8204;53.582;10.080;2023-04-20T04:55:10;101798.53;;;9.70;100.00
16194;BME280;8204;53.582;10.080;2023-04-20T04:57:40;101797.84;;;9.68;100.00
16194;BME280;8204;53.582;10.080;2023-04-20T05:00:10;101798.78;;;9.67;100.00
16194;BME280;8204;53.582;10.080;2023-04-20T05:02:43;101790.34;;;9.64;100.00
16194;BME280;8204;53.582;10.080;2023-04-20T05:05:12;101777.41;;;9.62;100.00
16194;BME280;8204;53.582;10.080;2023-04-20T05:07:44;101769.69;;;9.61;100.00
16194;BME280;8204;53.582;10.080;2023-04-20T05:10:13;101774.78;;;9.62;100.00
16194;BME280;8204;53.582;10.080;2023-04-20T05:12:42;101772.03;;;9.64;100.00
16194;BME280;8204;53.582;10.080;2023-04-20T05:15:11;101763.38;;;9.63;100.00
16194;BME280;8204;53.582;10.080;2023-04-20T05:17:40;101760.84;;;9.62;100.00
16194;BME280;8204;53.582;10.080;2023-04-20T05:20:10;101757.44;;;9.61;100.00
16194;BME280;8204;53.582;10.080;2023-04-20T05:22:39;101745.56;;;9.57;100.00
16194;BME280;8204;53.582;10.080;2023-04-20T05:25:11;101746.53;;;9.56;100.00
16194;BME280;8204;53.582;10.080;2023-04-20T05:27:40;101745.00;;;9.54;100.00
16194;BME280;8204;53.582;10.080;2023-04-20T05:30:09;101752.72;;;9.55;100.00
16194;BME280;8204;53.582;10.080;2023-04-20T05:32:38;101744.72;;;9.57;100.00
16194;BME280;8204;53.582;10.080;2023-04-20T05:35:07;101738.69;;;9.56;100.00
16194;BME280;8204;53.582;10.080;2023-04-20T05:37:36;101740.34;;;9.57;100.00
16194;BME280;8204;53.582;10.080;2023-04-20T05:40:06;101727.94;;;9.59;100.00
16194;BME280;8204;53.582;10.080;2023-04-20T05:42:39;101726.03;;;9.61;100.00
16194;BME280;8204;53.582;10.080;2023-04-20T05:45:09;101732.22;;;9.60;100.00
16194;BME280;8204;53.582;10.080;2023-04-20T05:47:38;101720.50;;;9.55;100.00
16194;BME280;8204;53.582;10.080;2023-04-20T05:50:08;101716.22;;;9.54;100.00
16194;BME280;8204;53.582;10.080;2023-04-20T05:52:38;101712.50;;;9.56;100.00
16194;BME280;8204;53.582;10.080;2023-04-20T05:55:07;101700.38;;;9.55;100.00
16194;BME280;8204;53.582;10.080;2023-04-20T05:57:39;101708.09;;;9.57;100.00
16194;BME280;8204;53.582;10.080;2023-04-20T06:00:10;101694.06;;;9.58;100.00
16194;BME280;8204;53.582;10.080;2023-04-20T06:02:40;101687.03;;;9.58;100.00
16194;BME280;8204;53.582;10.080;2023-04-20T06:05:09;101690.50;;;9.59;100.00
16194;BME280;8204;53.582;10.080;2023-04-20T06:07:38;101672.19;;;9.59;100.00
16194;BME280;8204;53.582;10.080;2023-04-20T06:10:08;101671.22;;;9.60;100.00
16194;BME280;8204;53.582;10.080;2023-04-20T06:12:39;101650.16;;;9.61;100.00
16194;BME280;8204;53.582;10.080;2023-04-20T06:15:09;101647.78;;;9.58;100.00
16194;BME280;8204;53.582;10.080;2023-04-20T06:17:38;101652.78;;;9.61;100.00
16194;BME280;8204;53.582;10.080;2023-04-20T06:20:09;101634.31;;;9.63;100.00
16194;BME280;8204;53.582;10.080;2023-04-20T06:22:41;101636.81;;;9.64;100.00
16194;BME280;8204;53.582;10.080;2023-04-20T06:25:11;101631.69;;;9.63;100.00
16194;BME280;8204;53.582;10.080;2023-04-20T06:27:43;101630.22;;;9.70;100.00
16194;BME280;8204;53.582;10.080;2023-04-20T06:30:13;101627.59;;;9.70;100.00
16194;BME280;8204;53.582;10.080;2023-04-20T06:32:42;101624.16;;;9.69;100.00
16194;BME280;8204;53.582;10.080;2023-04-20T06:35:11;101622.25;;;9.71;100.00
16194;BME280;8204;53.582;10.080;2023-04-20T06:37:40;101625.53;;;9.73;100.00
16194;BME280;8204;53.582;10.080;2023-04-20T06:40:10;101615.78;;;9.75;100.00
16194;BME280;8204;53.582;10.080;2023-04-20T06:42:39;101611.81;;;9.81;100.00
16194;BME280;8204;53.582;10.080;2023-04-20T06:45:11;101624.19;;;9.79;100.00
16194;BME280;8204;53.582;10.080;2023-04-20T06:47:40;101616.78;;;9.84;100.00
16194;BME280;8204;53.582;10.080;2023-04-20T06:50:09;101617.88;;;9.81;100.00
16194;BME280;8204;53.582;10.080;2023-04-20T06:52:38;101613.59;;;9.80;100.00
16194;BME280;8204;53.582;10.080;2023-04-20T06:55:08;101602.97;;;9.82;100.00
16194;BME280;8204;53.582;10.080;2023-04-20T06:57:38;101608.09;;;9.83;100.00
16194;BME280;8204;53.582;10.080;2023-04-20T07:00:12;101628.47;;;9.80;100.00
16194;BME280;8204;53.582;10.080;2023-04-20T07:02:41;101621.72;;;9.77;100.00
16194;BME280;8204;53.582;10.080;2023-04-20T07:05:10;101607.25;;;9.83;100.00
16194;BME280;8204;53.582;10.080;2023-04-20T07:07:40;101630.00;;;9.82;100.00
16194;BME280;8204;53.582;10.080;2023-04-20T07:10:11;101624.06;;;9.80;100.00
16194;BME280;8204;53.582;10.080;2023-04-20T07:12:40;101623.25;;;9.80;100.00
16194;BME280;8204;53.582;10.080;2023-04-20T07:15:12;101626.81;;;9.79;100.00
16194;BME280;8204;53.582;10.080;2023-04-20T07:17:41;101636.44;;;9.78;100.00
16194;BME280;8204;53.582;10.080;2023-04-20T07:20:10;101617.88;;;9.81;100.00
16194;BME280;8204;53.582;10.080;2023-04-20T07:22:41;101617.88;;;9.81;100.00
16194;BME280;8204;53.582;10.080;2023-04-20T07:25:09;101617.88;;;9.81;100.00
16194;BME280;8204;53.582;10.080;2023-04-20T07:27:39;101618.56;;;9.83;100.00
16194;BME280;8204;53.582;10.080;2023-04-20T07:30:12;101623.09;;;9.81;100.00
16194;BME280;8204;53.582;10.080;2023-04-20T07:32:41;101621.19;;;9.83;100.00
16194;BME280;8204;53.582;10.080;2023-04-20T07:35:10;101625.88;;;9.80;100.00
16194;BME280;8204;53.582;10.080;2023-04-20T07:37:38;101625.00;;;9.79;100.00
16194;BME280;8204;53.582;10.080;2023-04-20T07:40:09;101626.97;;;9.77;100.00
16194;BME280;8204;53.582;10.080;2023-04-20T07:42:38;101620.88;;;9.77;100.00
16194;BME280;8204;53.582;10.080;2023-04-20T07:45:08;101590.56;;;9.74;100.00
16194;BME280;8204;53.582;10.080;2023-04-20T07:47:40;101595.56;;;9.77;100.00
16194;BME280;8204;53.582;10.080;2023-04-20T07:50:11;101583.41;;;9.76;100.00
16194;BME280;8204;53.582;10.080;2023-04-20T07:52:40;101578.19;;;9.76;100.00
16194;BME280;8204;53.582;10.080;2023-04-20T07:55:09;101561.63;;;9.76;100.00
16194;BME280;8204;53.582;10.080;2023-04-20T07:57:39;101583.66;;;9.73;100.00
16194;BME280;8204;53.582;10.080;2023-04-20T08:00:09;101566.19;;;9.74;100.00
16194;BME280;8204;53.582;10.080;2023-04-20T08:02:41;101553.38;;;9.80;100.00
16194;BME280;8204;53.582;10.080;2023-04-20T08:05:10;101553.13;;;9.83;100.00
16194;BME280;8204;53.582;10.080;2023-04-20T08:07:39;101568.41;;;9.88;100.00
16194;BME280;8204;53.582;10.080;2023-04-20T08:10:08;101583.59;;;9.84;100.00
16194;BME280;8204;53.582;10.080;2023-04-20T08:12:37;101580.28;;;9.82;100.00
16194;BME280;8204;53.582;10.080;2023-04-20T08:15:08;101594.72;;;9.77;100.00
16194;BME280;8204;53.582;10.080;2023-04-20T08:17:37;101586.03;;;9.76;100.00
16194;BME280;8204;53.582;10.080;2023-04-20T08:20:09;101571.28;;;9.75;100.00
16194;BME280;8204;53.582;10.080;2023-04-20T08:22:38;101555.84;;;9.72;100.00
16194;BME280;8204;53.582;10.080;2023-04-20T08:25:07;101528.84;;;9.72;100.00
16194;BME280;8204;53.582;10.080;2023-04-20T08:27:36;101489.47;;;9.73;100.00
16194;BME280;8204;53.582;10.080;2023-04-20T08:30:06;101483.13;;;9.76;100.00
16194;BME280;8204;53.582;10.080;2023-04-20T08:32:35;101475.16;;;9.77;100.00
16194;BME280;8204;53.582;10.080;2023-04-20T08:35:08;101484.94;;;9.75;100.00
16194;BME280;8204;53.582;10.080;2023-04-20T08:37:38;101482.31;;;9.75;100.00
16194;BME280;8204;53.582;10.080;2023-04-20T08:40:09;101474.47;;;9.75;100.00
16194;BME280;8204;53.582;10.080;2023-04-20T08:42:38;101447.03;;;9.79;100.00
16194;BME280;8204;53.582;10.080;2023-04-20T08:45:08;101439.75;;;9.83;100.00
16194;BME280;8204;53.582;10.080;2023-04-20T08:47:38;101433.00;;;9.90;100.00
16194;BME280;8204;53.582;10.080;2023-04-20T08:50:10;101419.50;;;9.94;100.00
16194;BME280;8204;53.582;10.080;2023-04-20T08:52:39;101436.88;;;9.95;100.00
16194;BME280;8204;53.582;10.080;2023-04-20T08:55:08;101447.78;;;10.00;100.00
16194;BME280;8204;53.582;10.080;2023-04-20T08:57:37;101433.19;;;10.07;100.00
16194;BME280;8204;53.582;10.080;2023-04-20T09:00:07;101379.41;;;10.22;100.00
16194;BME280;8204;53.582;10.080;2023-04-20T09:02:47;101333.44;;;10.37;100.00
16194;BME280;8204;53.582;10.080;2023-04-20T09:05:26;101278.22;;;10.57;100.00
16194;BME280;8204;53.582;10.080;2023-04-20T09:07:57;101307.69;;;10.69;100.00
16194;BME280;8204;53.582;10.080;2023-04-20T09:10:38;101361.84;;;10.78;100.00
16194;BME280;8204;53.582;10.080;2023-04-20T09:13:08;101412.88;;;10.83;100.00
16194;BME280;8204;53.582;10.080;2023-04-20T09:15:37;101462.41;;;10.86;100.00
16194;BME280;8204;53.582;10.080;2023-04-20T09:18:12;101453.84;;;10.93;100.00
16194;BME280;8204;53.582;10.080;2023-04-20T09:20:44;101474.25;;;10.99;100.00
16194;BME280;8204;53.582;10.080;2023-04-20T09:23:17;101470.34;;;11.03;100.00
16194;BME280;8204;53.582;10.080;2023-04-20T09:25:49;101513.97;;;11.04;100.00
16194;BME280;8204;53.582;10.080;2023-04-20T09:28:19;101522.38;;;11.08;100.00
16194;BME280;8204;53.582;10.080;2023-04-20T09:30:49;101547.34;;;11.02;100.00
16194;BME280;8204;53.582;10.080;2023-04-20T09:33:18;101561.47;;;11.01;100.00
16194;BME280;8204;53.582;10.080;2023-04-20T09:35:49;101560.06;;;10.97;100.00
16194;BME280;8204;53.582;10.080;2023-04-20T09:38:25;101560.66;;;10.91;100.00
16194;BME280;8204;53.582;10.080;2023-04-20T09:40:57;101537.19;;;10.90;100.00
16194;BME280;8204;53.582;10.080;2023-04-20T09:43:28;101535.69;;;10.88;100.00
16194;BME280;8204;53.582;10.080;2023-04-20T09:45:58;101541.34;;;10.83;100.00
16194;BME280;8204;53.582;10.080;2023-04-20T09:48:27;101529.34;;;10.81;100.00
16194;BME280;8204;53.582;10.080;2023-04-20T09:51:01;101454.97;;;10.82;100.00
16194;BME280;8204;53.582;10.080;2023-04-20T09:53:30;101420.97;;;10.89;100.00
16194;BME280;8204;53.582;10.080;2023-04-20T09:56:00;101431.47;;;10.89;100.00
16194;BME280;8204;53.582;10.080;2023-04-20T09:58:31;101416.97;;;10.95;100.00
16194;BME280;8204;53.582;10.080;2023-04-20T10:01:01;101397.97;;;11.10;100.00
16194;BME280;8204;53.582;10.080;2023-04-20T10:03:30;101298.25;;;11.37;100.00
16194;BME280;8204;53.582;10.080;2023-04-20T10:06:02;101336.69;;;11.56;100.00
16194;BME280;8204;53.582;10.080;2023-04-20T10:08:39;101282.28;;;11.83;100.00
16194;BME280;8204;53.582;10.080;2023-04-20T10:11:08;101336.94;;;12.05;100.00
16194;BME280;8204;53.582;10.080;2023-04-20T10:13:37;101450.09;;;12.11;100.00
16194;BME280;8204;53.582;10.080;2023-04-20T10:16:16;101519.16;;;12.21;100.00
16194;BME280;8204;53.582;10.080;2023-04-20T10:18:55;101570.00;;;12.30;100.00
16194;BME280;8204;53.582;10.080;2023-04-20T10:21:26;101635.97;;;12.27;100.00
16194;BME280;8204;53.582;10.080;2023-04-20T10:23:58;101686.50;;;12.21;100.00
16194;BME280;8204;53.582;10.080;2023-04-20T10:26:37;101691.09;;;12.19;100.00
16194;BME280;8204;53.582;10.080;2023-04-20T10:29:08;101668.25;;;12.19;100.00
16194;BME280;8204;53.582;10.080;2023-04-20T10:31:39;101695.81;;;12.15;100.00
16194;BME280;8204;53.582;10.080;2023-04-20T10:34:08;101685.84;;;12.19;100.00
16194;BME280;8204;53.582;10.080;2023-04-20T10:36:39;101691.22;;;12.17;100.00
16194;BME280;8204;53.582;10.080;2023-04-20T10:39:15;101696.06;;;12.12;100.00
16194;BME280;8204;53.582;10.080;2023-04-20T10:41:51;101711.03;;;12.12;100.00
16194;BME280;8204;53.582;10.080;2023-04-20T10:44:23;101699.81;;;12.10;100.00
16194;BME280;8204;53.582;10.080;2023-04-20T10:46:52;101706.91;;;12.09;100.00
16194;BME280;8204;53.582;10.080;2023-04-20T10:49:25;101696.50;;;12.08;100.00
16194;BME280;8204;53.582;10.080;2023-04-20T10:51:57;101699.81;;;12.10;100.00
16194;BME280;8204;53.582;10.080;2023-04-20T10:54:26;101685.69;;;12.20;100.00
16194;BME280;8204;53.582;10.080;2023-04-20T10:57:04;101687.03;;;12.24;100.00
16194;BME280;8204;53.582;10.080;2023-04-20T10:59:34;101713.84;;;12.28;100.00
16194;BME280;8204;53.582;10.080;2023-04-20T11:02:33;101728.38;;;12.32;100.00
16194;BME280;8204;53.582;10.080;2023-04-20T11:05:09;101744.84;;;12.24;100.00
16194;BME280;8204;53.582;10.080;2023-04-20T11:07:50;101750.94;;;12.25;100.00
16194;BME280;8204;53.582;10.080;2023-04-20T11:10:19;101731.00;;;12.32;100.00
16194;BME280;8204;53.582;10.080;2023-04-20T11:12:48;101743.28;;;12.31;100.00
16194;BME280;8204;53.582;10.080;2023-04-20T11:15:17;101747.72;;;12.31;100.00
16194;BME280;8204;53.582;10.080;2023-04-20T11:17:46;101747.34;;;12.26;100.00
16194;BME280;8204;53.582;10.080;2023-04-20T11:20:14;101753.66;;;12.33;100.00
16194;BME280;8204;53.582;10.080;2023-04-20T11:22:54;101748.50;;;12.40;100.00
16194;BME280;8204;53.582;10.080;2023-04-20T11:25:27;101744.63;;;12.44;100.00
16194;BME280;8204;53.582;10.080;2023-04-20T11:28:04;101745.28;;;12.46;100.00
16194;BME280;8204;53.582;10.080;2023-04-20T11:30:37;101748.59;;;12.48;100.00
16194;BME280;8204;53.582;10.080;2023-04-20T11:33:06;101749.66;;;12.55;100.00
16194;BME280;8204;53.582;10.080;2023-04-20T11:35:36;101773.72;;;12.60;100.00
16194;BME280;8204;53.582;10.080;2023-04-20T11:38:06;101781.22;;;12.55;100.00
16194;BME280;8204;53.582;10.080;2023-04-20T11:40:39;101788.41;;;12.53;100.00
16194;BME280;8204;53.582;10.080;2023-04-20T11:43:09;101781.91;;;12.57;100.00
16194;BME280;8204;53.582;10.080;2023-04-20T11:45:38;101786.09;;;12.50;100.00
16194;BME280;8204;53.582;10.080;2023-04-20T11:48:07;101793.00;;;12.51;100.00
16194;BME280;8204;53.582;10.080;2023-04-20T11:50:35;101786.63;;;12.54;100.00
16194;BME280;8204;53.582;10.080;2023-04-20T11:53:07;101784.22;;;12.60;100.00
16194;BME280;8204;53.582;10.080;2023-04-20T11:55:42;101781.59;;;12.60;100.00
16194;BME280;8204;53.582;10.080;2023-04-20T11:58:10;101788.81;;;12.58;100.00
16194;BME280;8204;53.582;10.080;2023-04-20T12:00:39;101775.97;;;12.55;100.00
16194;BME280;8204;53.582;10.080;2023-04-20T12:03:08;101767.28;;;12.45;100.00
16194;BME280;8204;53.582;10.080;2023-04-20T12:05:37;101751.81;;;12.42;100.00
16194;BME280;8204;53.582;10.080;2023-04-20T12:08:07;101715.28;;;12.39;100.00
16194;BME280;8204;53.582;10.080;2023-04-20T12:10:36;101689.16;;;12.38;100.00
16194;BME280;8204;53.582;10.080;2023-04-20T12:13:09;101695.53;;;12.36;100.00
16194;BME280;8204;53.582;10.080;2023-04-20T12:15:38;101693.19;;;12.33;100.00
16194;BME280;8204;53.582;10.080;2023-04-20T12:18:07;101703.47;;;12.26;100.00
16194;BME280;8204;53.582;10.080;2023-04-20T12:20:35;101680.66;;;12.27;100.00
16194;BME280;8204;53.582;10.080;2023-04-20T12:23:04;101659.94;;;12.24;100.00
16194;BME280;8204;53.582;10.080;2023-04-20T12:25:33;101653.31;;;12.20;100.00
16194;BME280;8204;53.582;10.080;2023-04-20T12:28:02;101652.91;;;12.15;100.00
16194;BME280;8204;53.582;10.080;2023-04-20T12:30:34;101654.84;;;12.13;100.00
16194;BME280;8204;53.582;10.080;2023-04-20T12:33:06;101647.28;;;12.10;100.00
16194;BME280;8204;53.582;10.080;2023-04-20T12:35:36;101633.19;;;12.11;100.00
16194;BME280;8204;53.582;10.080;2023-04-20T12:38:04;101624.31;;;12.12;100.00
16194;BME280;8204;53.582;10.080;2023-04-20T12:40:33;101626.97;;;12.12;100.00
16194;BME280;8204;53.582;10.080;2023-04-20T12:43:02;101642.56;;;12.13;100.00
16194;BME280;8204;53.582;10.080;2023-04-20T12:45:34;101630.25;;;12.14;100.00
16194;BME280;8204;53.582;10.080;2023-04-20T12:48:03;101623.44;;;12.21;100.00
16194;BME280;8204;53.582;10.080;2023-04-20T12:50:32;101618.44;;;12.27;100.00
16194;BME280;8204;53.582;10.080;2023-04-20T12:53:01;101638.69;;;12.35;100.00
16194;BME280;8204;53.582;10.080;2023-04-20T12:55:30;101640.56;;;12.42;100.00
16194;BME280;8204;53.582;10.080;2023-04-20T12:58:00;101654.34;;;12.53;100.00